createdAt,value
2017-04-22T00:01:35.665Z,0
2017-04-22T00:02:44.886Z,0
2017-04-22T00:03:54.114Z,0
2017-04-22T00:05:03.036Z,0
2017-04-22T00:06:12.259Z,0
2017-04-22T00:07:21.159Z,0
2017-04-22T00:08:30.692Z,0
2017-04-22T00:09:39.597Z,0
2017-04-22T00:10:48.494Z,0
2017-04-22T00:11:57.083Z,0
2017-04-22T00:13:06.055Z,0
2017-04-22T00:14:14.641Z,0
2017-04-22T00:15:23.547Z,0
2017-04-22T00:16:32.152Z,0
2017-04-22T00:17:41.153Z,0
2017-04-22T00:18:50.073Z,0
2017-04-22T00:19:59.622Z,0
2017-04-22T00:21:08.583Z,0
2017-04-22T00:22:17.480Z,0
2017-04-22T00:23:26.695Z,0
2017-04-22T00:24:35.588Z,0
2017-04-22T00:25:44.525Z,0
2017-04-22T00:26:54.071Z,0
2017-04-22T00:28:02.984Z,0
2017-04-22T00:29:12.206Z,0
2017-04-22T00:30:21.502Z,0
2017-04-22T00:31:30.401Z,0
2017-04-22T00:32:39.305Z,0
2017-04-22T00:33:48.279Z,0
2017-04-22T00:34:56.960Z,0
2017-04-22T00:36:05.543Z,0
2017-04-22T00:37:14.570Z,0
2017-04-22T00:38:23.794Z,0
2017-04-22T00:39:32.695Z,0
2017-04-22T00:40:41.918Z,0
2017-04-22T00:41:51.137Z,0
2017-04-22T00:43:00.675Z,0
2017-04-22T00:44:10.376Z,0
2017-04-22T00:45:19.313Z,0
2017-04-22T00:46:29.174Z,0
2017-04-22T00:47:38.467Z,0
2017-04-22T00:48:47.398Z,0
2017-04-22T00:49:56.622Z,0
2017-04-22T00:51:05.845Z,0
2017-04-22T00:52:15.137Z,0
2017-04-22T00:53:24.675Z,0
2017-04-22T00:54:33.257Z,0
2017-04-22T00:55:42.531Z,0
2017-04-22T00:56:52.069Z,0
2017-04-22T00:58:01.288Z,0
2017-04-22T00:59:09.883Z,0
2017-04-22T01:00:19.392Z,0
2017-04-22T01:01:28.929Z,0
2017-04-22T01:02:37.831Z,0
2017-04-22T01:03:47.061Z,0
2017-04-22T01:04:55.961Z,0
2017-04-22T01:06:05.494Z,0
2017-04-22T01:07:14.433Z,0
2017-04-22T01:08:23.872Z,0
2017-04-22T01:09:33.089Z,0
2017-04-22T01:10:42.039Z,0
2017-04-22T01:11:51.264Z,0
2017-04-22T01:12:59.861Z,0
2017-04-22T01:14:09.490Z,0
2017-04-22T01:15:19.150Z,0
2017-04-22T01:16:28.662Z,0
2017-04-22T01:17:37.599Z,0
2017-04-22T01:18:46.942Z,0
2017-04-22T01:19:55.853Z,0
2017-04-22T01:21:05.272Z,0
2017-04-22T01:22:14.255Z,0
2017-04-22T01:23:23.527Z,0
2017-04-22T01:24:32.760Z,0
2017-04-22T01:25:41.343Z,0
2017-04-22T01:26:50.785Z,0
2017-04-22T01:27:59.364Z,0
2017-04-22T01:29:08.265Z,0
2017-04-22T01:30:17.227Z,0
2017-04-22T01:31:26.450Z,0
2017-04-22T01:32:35.666Z,0
2017-04-22T01:33:44.578Z,0
2017-04-22T01:34:53.841Z,0
2017-04-22T01:36:02.739Z,0
2017-04-22T01:37:11.638Z,0
2017-04-22T01:38:20.547Z,0
2017-04-22T01:39:29.449Z,0
2017-04-22T01:40:38.356Z,0
2017-04-22T01:41:46.931Z,0
2017-04-22T01:42:56.145Z,0
2017-04-22T01:44:05.360Z,0
2017-04-22T01:45:13.941Z,0
2017-04-22T01:46:23.405Z,0
2017-04-22T01:47:32.635Z,0
2017-04-22T01:48:41.856Z,0
2017-04-22T01:49:50.753Z,0
2017-04-22T01:50:59.652Z,0
2017-04-22T01:52:09.206Z,0
2017-04-22T01:53:18.102Z,0
2017-04-22T01:54:27.005Z,0
2017-04-22T01:55:35.967Z,0
2017-04-22T01:56:44.589Z,0
2017-04-22T01:57:53.490Z,0
2017-04-22T01:59:02.394Z,0
2017-04-22T02:00:11.047Z,0
2017-04-22T02:01:19.948Z,0
2017-04-22T02:02:28.852Z,0
2017-04-22T02:03:38.197Z,0
2017-04-22T02:04:47.829Z,0
2017-04-22T02:05:56.720Z,0
2017-04-22T02:07:06.571Z,0
2017-04-22T02:08:15.498Z,0
2017-04-22T02:09:24.715Z,0
2017-04-22T02:10:33.944Z,0
2017-04-22T02:11:42.839Z,0
2017-04-22T02:12:51.422Z,0
2017-04-22T02:14:00.013Z,0
2017-04-22T02:15:08.915Z,0
2017-04-22T02:16:18.236Z,0
2017-04-22T02:17:27.530Z,0
2017-04-22T02:18:36.109Z,0
2017-04-22T02:19:45.325Z,0
2017-04-22T02:20:53.959Z,0
2017-04-22T02:22:02.895Z,0
2017-04-22T02:23:12.105Z,0
2017-04-22T02:24:21.962Z,0
2017-04-22T02:25:31.522Z,0
2017-04-22T02:26:40.741Z,0
2017-04-22T02:27:49.649Z,0
2017-04-22T02:28:58.596Z,0
2017-04-22T02:30:07.535Z,0
2017-04-22T02:31:16.432Z,0
2017-04-22T02:32:25.712Z,0
2017-04-22T02:33:34.933Z,0
2017-04-22T02:34:44.471Z,0
2017-04-22T02:35:53.796Z,0
2017-04-22T02:37:02.708Z,0
2017-04-22T02:38:11.661Z,0
2017-04-22T02:39:20.945Z,0
2017-04-22T02:40:29.899Z,0
2017-04-22T02:41:38.846Z,0
2017-04-22T02:42:48.065Z,0
2017-04-22T02:43:56.674Z,0
2017-04-22T02:45:06.213Z,0
2017-04-22T02:46:14.795Z,0
2017-04-22T02:47:23.832Z,0
2017-04-22T02:48:33.052Z,0
2017-04-22T02:49:42.133Z,0
2017-04-22T02:50:50.798Z,0
2017-04-22T02:51:59.720Z,0
2017-04-22T02:53:08.937Z,0
2017-04-22T02:54:17.610Z,0
2017-04-22T02:55:26.511Z,0
2017-04-22T02:56:35.415Z,0
2017-04-22T02:57:44.395Z,0
2017-04-22T02:58:53.399Z,0
2017-04-22T03:00:02.981Z,0
2017-04-22T03:01:11.565Z,0
2017-04-22T03:02:20.468Z,0
2017-04-22T03:03:29.368Z,0
2017-04-22T03:04:38.907Z,0
2017-04-22T03:05:48.125Z,0
2017-04-22T03:06:57.675Z,0
2017-04-22T03:08:06.573Z,0
2017-04-22T03:09:15.768Z,0
2017-04-22T03:10:24.352Z,0
2017-04-22T03:11:33.253Z,0
2017-04-22T03:12:42.471Z,0
2017-04-22T03:13:51.375Z,0
2017-04-22T03:15:00.922Z,0
2017-04-22T03:16:09.507Z,0
2017-04-22T03:17:18.724Z,0
2017-04-22T03:18:27.947Z,0
2017-04-22T03:19:37.165Z,0
2017-04-22T03:20:45.751Z,0
2017-04-22T03:21:55.281Z,0
2017-04-22T03:23:03.864Z,0
2017-04-22T03:24:12.759Z,0
2017-04-22T03:25:21.671Z,0
2017-04-22T03:26:31.215Z,0
2017-04-22T03:27:40.470Z,0
2017-04-22T03:28:50.025Z,0
2017-04-22T03:29:58.929Z,0
2017-04-22T03:31:07.829Z,0
2017-04-22T03:32:17.359Z,0
2017-04-22T03:33:25.940Z,0
2017-04-22T03:34:34.831Z,0
2017-04-22T03:35:43.409Z,0
2017-04-22T03:36:52.620Z,0
2017-04-22T03:38:01.526Z,0
2017-04-22T03:39:13.758Z,0
2017-04-22T03:40:22.664Z,0
2017-04-22T03:41:31.636Z,0
2017-04-22T03:42:40.797Z,0
2017-04-22T03:43:49.694Z,0
2017-04-22T03:44:59.048Z,0
2017-04-22T03:46:08.271Z,0
2017-04-22T03:47:17.083Z,0
2017-04-22T03:48:25.978Z,0
2017-04-22T03:49:35.197Z,0
2017-04-22T03:50:44.732Z,0
2017-04-22T03:51:53.629Z,0
2017-04-22T03:53:02.554Z,0
2017-04-22T03:54:11.135Z,0
2017-04-22T03:55:20.348Z,0
2017-04-22T03:56:29.238Z,0
2017-04-22T03:57:38.504Z,0
2017-04-22T03:58:47.821Z,0
2017-04-22T03:59:56.724Z,0
2017-04-22T04:01:05.933Z,0
2017-04-22T04:02:14.844Z,0
2017-04-22T04:03:24.067Z,0
2017-04-22T04:04:33.293Z,0
2017-04-22T04:05:42.197Z,0
2017-04-22T04:06:51.419Z,0
2017-04-22T04:08:00.636Z,0
2017-04-22T04:09:09.221Z,0
2017-04-22T04:10:18.117Z,0
2017-04-22T04:11:26.714Z,0
2017-04-22T04:12:36.032Z,0
2017-04-22T04:13:44.935Z,0
2017-04-22T04:14:54.148Z,0
2017-04-22T04:16:02.820Z,0
2017-04-22T04:17:13.328Z,0
2017-04-22T04:18:21.912Z,0
2017-04-22T04:19:31.138Z,0
2017-04-22T04:20:39.766Z,0
2017-04-22T04:21:48.391Z,0
2017-04-22T04:22:57.664Z,0
2017-04-22T04:24:06.302Z,0
2017-04-22T04:25:15.873Z,0
2017-04-22T04:26:24.784Z,0
2017-04-22T04:27:34.002Z,0
2017-04-22T04:28:43.224Z,0
2017-04-22T04:29:52.131Z,0
2017-04-22T04:31:01.029Z,0
2017-04-22T04:32:09.606Z,5
2017-04-22T04:33:18.507Z,5
2017-04-22T04:34:27.097Z,5
2017-04-22T04:35:35.995Z,5
2017-04-22T04:36:45.224Z,5
2017-04-22T04:37:54.436Z,10
2017-04-22T04:39:03.340Z,10
2017-04-22T04:40:12.870Z,10
2017-04-22T04:41:21.771Z,10
2017-04-22T04:42:30.348Z,10
2017-04-22T04:43:39.256Z,10
2017-04-22T04:44:47.967Z,10
2017-04-22T04:45:57.336Z,10
2017-04-22T04:47:06.873Z,10
2017-04-22T04:48:16.091Z,10
2017-04-22T04:49:24.999Z,10
2017-04-22T04:50:34.215Z,10
2017-04-22T04:51:43.121Z,10
2017-04-22T04:52:51.706Z,10
2017-04-22T04:54:00.281Z,10
2017-04-22T04:55:09.176Z,15
2017-04-22T04:56:17.776Z,15
2017-04-22T04:57:26.680Z,20
2017-04-22T04:58:36.207Z,25
2017-04-22T04:59:45.741Z,30
2017-04-22T05:00:54.642Z,30
2017-04-22T05:02:03.222Z,30
2017-04-22T05:03:12.438Z,30
2017-04-22T05:04:21.774Z,30
2017-04-22T05:05:30.668Z,30
2017-04-22T05:06:40.207Z,35
2017-04-22T05:07:49.427Z,35
2017-04-22T05:08:58.655Z,40
2017-04-22T05:10:08.189Z,40
2017-04-22T05:11:17.722Z,40
2017-04-22T05:12:27.258Z,40
2017-04-22T05:13:36.480Z,45
2017-04-22T05:14:45.518Z,45
2017-04-22T05:15:54.575Z,45
2017-04-22T05:17:03.166Z,45
2017-04-22T05:18:12.373Z,45
2017-04-22T05:19:21.270Z,45
2017-04-22T05:20:30.165Z,45
2017-04-22T05:21:40.019Z,45
2017-04-22T05:22:49.240Z,50
2017-04-22T05:23:57.920Z,55
2017-04-22T05:25:07.132Z,60
2017-04-22T05:26:16.030Z,65
2017-04-22T05:27:24.931Z,65
2017-04-22T05:28:33.831Z,65
2017-04-22T05:29:42.854Z,65
2017-04-22T05:30:52.074Z,70
2017-04-22T05:32:01.292Z,80
2017-04-22T05:33:09.946Z,95
2017-04-22T05:34:19.489Z,115
2017-04-22T05:35:28.393Z,120
2017-04-22T05:36:37.294Z,120
2017-04-22T05:37:46.191Z,115
2017-04-22T05:38:54.780Z,110
2017-04-22T05:40:03.694Z,105
2017-04-22T05:41:12.911Z,95
2017-04-22T05:42:21.808Z,85
2017-04-22T05:43:31.339Z,85
2017-04-22T05:44:40.652Z,90
2017-04-22T05:45:49.550Z,95
2017-04-22T05:46:59.082Z,100
2017-04-22T05:48:08.299Z,95
2017-04-22T05:49:16.883Z,95
2017-04-22T05:50:26.116Z,100
2017-04-22T05:51:35.332Z,105
2017-04-22T05:52:44.544Z,105
2017-04-22T05:53:53.913Z,105
2017-04-22T05:55:02.846Z,95
2017-04-22T05:56:11.764Z,100
2017-04-22T05:57:20.981Z,110
2017-04-22T05:58:30.213Z,130
2017-04-22T05:59:39.748Z,150
2017-04-22T06:00:49.600Z,145
2017-04-22T06:01:58.498Z,140
2017-04-22T06:03:07.402Z,155
2017-04-22T06:04:16.305Z,175
2017-04-22T06:05:25.524Z,175
2017-04-22T06:06:34.442Z,175
2017-04-22T06:07:43.348Z,175
2017-04-22T06:08:52.615Z,160
2017-04-22T06:10:01.511Z,155
2017-04-22T06:11:10.723Z,155
2017-04-22T06:12:19.954Z,155
2017-04-22T06:13:29.496Z,165
2017-04-22T06:14:38.412Z,200
2017-04-22T06:15:47.415Z,205
2017-04-22T06:16:56.316Z,210
2017-04-22T06:18:05.553Z,220
2017-04-22T06:19:14.767Z,205
2017-04-22T06:20:23.856Z,200
2017-04-22T06:21:33.393Z,220
2017-04-22T06:22:42.612Z,225
2017-04-22T06:23:51.517Z,235
2017-04-22T06:25:00.416Z,235
2017-04-22T06:26:09.329Z,225
2017-04-22T06:27:18.232Z,225
2017-04-22T06:28:26.819Z,220
2017-04-22T06:29:37.059Z,215
2017-04-22T06:30:45.971Z,220
2017-04-22T06:31:55.508Z,240
2017-04-22T06:33:04.919Z,255
2017-04-22T06:34:14.516Z,255
2017-04-22T06:35:23.103Z,255
2017-04-22T06:36:32.325Z,250
2017-04-22T06:37:41.234Z,225
2017-04-22T06:38:49.819Z,195
2017-04-22T06:39:58.413Z,185
2017-04-22T06:41:07.435Z,205
2017-04-22T06:42:16.388Z,215
2017-04-22T06:43:26.288Z,180
2017-04-22T06:44:35.516Z,170
2017-04-22T06:45:44.665Z,200
2017-04-22T06:46:53.886Z,205
2017-04-22T06:48:02.787Z,245
2017-04-22T06:49:12.331Z,245
2017-04-22T06:50:21.553Z,235
2017-04-22T06:51:30.138Z,255
2017-04-22T06:52:39.364Z,265
2017-04-22T06:53:48.267Z,320
2017-04-22T06:54:57.494Z,255
2017-04-22T06:56:06.721Z,240
2017-04-22T06:57:15.933Z,255
2017-04-22T06:58:25.786Z,300
2017-04-22T06:59:35.007Z,275
2017-04-22T07:00:44.244Z,295
2017-04-22T07:01:52.824Z,310
2017-04-22T07:03:02.045Z,270
2017-04-22T07:04:10.975Z,270
2017-04-22T07:05:19.554Z,250
2017-04-22T07:06:28.147Z,275
2017-04-22T07:07:37.043Z,335
2017-04-22T07:08:45.955Z,270
2017-04-22T07:09:55.188Z,265
2017-04-22T07:11:04.727Z,265
2017-04-22T07:12:13.944Z,270
2017-04-22T07:13:22.861Z,275
2017-04-22T07:14:32.397Z,265
2017-04-22T07:15:41.941Z,230
2017-04-22T07:16:51.484Z,185
2017-04-22T07:18:00.924Z,155
2017-04-22T07:19:10.480Z,155
2017-04-22T07:20:19.084Z,165
2017-04-22T07:21:27.983Z,180
2017-04-22T07:22:37.196Z,220
2017-04-22T07:23:46.438Z,250
2017-04-22T07:24:55.344Z,230
2017-04-22T07:26:04.516Z,180
2017-04-22T07:27:13.418Z,170
2017-04-22T07:28:22.951Z,215
2017-04-22T07:29:32.181Z,325
2017-04-22T07:30:41.705Z,395
2017-04-22T07:31:50.935Z,400
2017-04-22T07:33:00.483Z,360
2017-04-22T07:34:09.394Z,370
2017-04-22T07:35:18.939Z,365
2017-04-22T07:36:27.849Z,395
2017-04-22T07:37:36.762Z,375
2017-04-22T07:38:45.923Z,350
2017-04-22T07:39:54.986Z,305
2017-04-22T07:41:03.588Z,295
2017-04-22T07:42:12.489Z,295
2017-04-22T07:43:21.592Z,230
2017-04-22T07:44:30.790Z,260
2017-04-22T07:45:40.015Z,325
2017-04-22T07:46:48.595Z,380
2017-04-22T07:47:57.501Z,300
2017-04-22T07:49:06.405Z,255
2017-04-22T07:50:15.001Z,190
2017-04-22T07:51:23.908Z,195
2017-04-22T07:52:32.493Z,225
2017-04-22T07:53:42.031Z,275
2017-04-22T07:54:50.614Z,215
2017-04-22T07:55:59.509Z,220
2017-04-22T07:57:08.413Z,260
2017-04-22T07:58:17.003Z,255
2017-04-22T07:59:26.227Z,260
2017-04-22T08:00:35.131Z,345
2017-04-22T08:01:44.030Z,405
2017-04-22T08:02:52.940Z,275
2017-04-22T08:04:02.167Z,325
2017-04-22T08:05:11.389Z,280
2017-04-22T08:06:19.986Z,335
2017-04-22T08:07:29.203Z,260
2017-04-22T08:08:38.418Z,325
2017-04-22T08:09:47.325Z,240
2017-04-22T08:10:55.901Z,295
2017-04-22T08:12:05.137Z,295
2017-04-22T08:13:14.370Z,290
2017-04-22T08:14:23.586Z,330
2017-04-22T08:15:32.811Z,335
2017-04-22T08:16:41.402Z,295
2017-04-22T08:17:50.646Z,285
2017-04-22T08:18:59.874Z,350
2017-04-22T08:20:09.742Z,340
2017-04-22T08:21:18.984Z,380
2017-04-22T08:22:28.211Z,340
2017-04-22T08:23:37.766Z,265
2017-04-22T08:24:46.993Z,230
2017-04-22T08:25:56.225Z,235
2017-04-22T08:27:05.155Z,275
2017-04-22T08:28:14.383Z,320
2017-04-22T08:29:23.296Z,330
2017-04-22T08:30:31.890Z,345
2017-04-22T08:31:40.480Z,370
2017-04-22T08:32:50.487Z,365
2017-04-22T08:33:59.714Z,325
2017-04-22T08:35:08.626Z,330
2017-04-22T08:36:18.174Z,360
2017-04-22T08:37:27.079Z,305
2017-04-22T08:38:35.818Z,290
2017-04-22T08:39:44.493Z,390
2017-04-22T08:40:53.598Z,435
2017-04-22T08:42:02.629Z,370
2017-04-22T08:43:11.543Z,450
2017-04-22T08:44:20.514Z,320
2017-04-22T08:45:29.503Z,140
2017-04-22T08:46:38.432Z,85
2017-04-22T08:47:47.354Z,60
2017-04-22T08:48:55.961Z,65
2017-04-22T08:50:05.206Z,80
2017-04-22T08:51:14.440Z,95
2017-04-22T08:52:24.133Z,120
2017-04-22T08:53:33.059Z,140
2017-04-22T08:54:42.029Z,160
2017-04-22T08:55:50.836Z,205
2017-04-22T08:56:59.780Z,260
2017-04-22T08:58:08.789Z,310
2017-04-22T08:59:17.755Z,350
2017-04-22T09:00:27.313Z,375
2017-04-22T09:01:36.621Z,365
2017-04-22T09:02:45.559Z,350
2017-04-22T09:03:55.119Z,355
2017-04-22T09:05:04.696Z,360
2017-04-22T09:06:13.284Z,390
2017-04-22T09:07:22.516Z,415
2017-04-22T09:08:32.116Z,415
2017-04-22T09:09:41.438Z,415
2017-04-22T09:10:50.365Z,355
2017-04-22T09:11:59.694Z,300
2017-04-22T09:13:08.916Z,260
2017-04-22T09:14:17.829Z,230
2017-04-22T09:15:26.764Z,220
2017-04-22T09:16:36.024Z,200
2017-04-22T09:17:45.266Z,190
2017-04-22T09:18:54.186Z,215
2017-04-22T09:20:03.417Z,210
2017-04-22T09:21:12.644Z,205
2017-04-22T09:22:25.783Z,200
2017-04-22T09:23:34.435Z,200
2017-04-22T09:24:43.731Z,200
2017-04-22T09:25:52.961Z,225
2017-04-22T09:27:01.875Z,265
2017-04-22T09:28:10.842Z,345
2017-04-22T09:29:20.089Z,465
2017-04-22T09:30:30.516Z,535
2017-04-22T09:31:39.907Z,495
2017-04-22T09:32:49.148Z,350
2017-04-22T09:33:58.961Z,260
2017-04-22T09:35:07.864Z,335
2017-04-22T09:36:17.413Z,340
2017-04-22T09:37:26.417Z,385
2017-04-22T09:38:35.333Z,440
2017-04-22T09:39:44.238Z,425
2017-04-22T09:40:53.146Z,425
2017-04-22T09:42:02.061Z,435
2017-04-22T09:43:10.970Z,380
2017-04-22T09:44:19.891Z,345
2017-04-22T09:45:29.158Z,315
2017-04-22T09:46:38.059Z,295
2017-04-22T09:47:47.276Z,290
2017-04-22T09:48:56.190Z,310
2017-04-22T09:50:05.413Z,310
2017-04-22T09:51:15.727Z,255
2017-04-22T09:52:24.639Z,240
2017-04-22T09:53:33.379Z,230
2017-04-22T09:54:42.323Z,235
2017-04-22T09:55:51.546Z,220
2017-04-22T09:57:00.768Z,220
2017-04-22T09:58:09.678Z,255
2017-04-22T09:59:18.598Z,255
2017-04-22T10:00:27.501Z,260
2017-04-22T10:01:36.719Z,310
2017-04-22T10:02:45.946Z,365
2017-04-22T10:03:54.842Z,370
2017-04-22T10:05:03.422Z,320
2017-04-22T10:06:12.933Z,245
2017-04-22T10:07:22.157Z,190
2017-04-22T10:08:31.381Z,180
2017-04-22T10:09:40.598Z,175
2017-04-22T10:10:50.042Z,205
2017-04-22T10:11:59.398Z,210
2017-04-22T10:13:08.618Z,210
2017-04-22T10:14:17.752Z,210
2017-04-22T10:15:26.730Z,210
2017-04-22T10:16:35.311Z,210
2017-04-22T10:17:44.972Z,220
2017-04-22T10:18:53.883Z,260
2017-04-22T10:20:02.530Z,380
2017-04-22T10:21:11.357Z,445
2017-04-22T10:22:20.578Z,400
2017-04-22T10:23:29.481Z,535
2017-04-22T10:24:38.905Z,440
2017-04-22T10:25:48.040Z,390
2017-04-22T10:26:57.036Z,505
2017-04-22T10:28:05.633Z,475
2017-04-22T10:29:15.364Z,490
2017-04-22T10:30:24.807Z,470
2017-04-22T10:31:33.539Z,505
2017-04-22T10:32:42.527Z,435
2017-04-22T10:33:51.546Z,415
2017-04-22T10:35:00.501Z,405
2017-04-22T10:36:09.770Z,450
2017-04-22T10:37:19.016Z,485
2017-04-22T10:38:28.234Z,495
2017-04-22T10:39:36.824Z,470
2017-04-22T10:40:46.046Z,440
2017-04-22T10:41:55.266Z,430
2017-04-22T10:43:04.231Z,370
2017-04-22T10:44:13.475Z,315
2017-04-22T10:45:23.021Z,285
2017-04-22T10:46:31.946Z,275
2017-04-22T10:47:40.896Z,375
2017-04-22T10:48:50.768Z,465
2017-04-22T10:50:00.015Z,510
2017-04-22T10:51:09.467Z,465
2017-04-22T10:52:18.697Z,370
2017-04-22T10:53:27.638Z,330
2017-04-22T10:54:36.544Z,280
2017-04-22T10:55:45.474Z,225
2017-04-22T10:56:54.059Z,185
2017-04-22T10:58:02.959Z,220
2017-04-22T10:59:11.547Z,295
2017-04-22T11:00:20.463Z,380
2017-04-22T11:01:29.685Z,420
2017-04-22T11:02:38.602Z,330
2017-04-22T11:03:47.512Z,245
2017-04-22T11:04:57.069Z,185
2017-04-22T11:06:05.664Z,165
2017-04-22T11:07:14.707Z,175
2017-04-22T11:08:23.934Z,150
2017-04-22T11:09:33.167Z,145
2017-04-22T11:10:42.399Z,135
2017-04-22T11:11:51.625Z,140
2017-04-22T11:13:00.547Z,140
2017-04-22T11:14:10.144Z,140
2017-04-22T11:15:19.062Z,145
2017-04-22T11:16:27.645Z,150
2017-04-22T11:17:36.551Z,155
2017-04-22T11:18:45.782Z,200
2017-04-22T11:19:54.747Z,270
2017-04-22T11:21:04.177Z,350
2017-04-22T11:22:12.783Z,385
2017-04-22T11:23:21.702Z,395
2017-04-22T11:24:30.292Z,400
2017-04-22T11:25:39.231Z,415
2017-04-22T11:26:48.152Z,415
2017-04-22T11:27:57.093Z,405
2017-04-22T11:29:06.518Z,375
2017-04-22T11:30:16.052Z,320
2017-04-22T11:31:25.193Z,260
2017-04-22T11:32:33.828Z,250
2017-04-22T11:33:42.744Z,260
2017-04-22T11:34:51.765Z,270
2017-04-22T11:36:00.785Z,275
2017-04-22T11:37:10.542Z,275
2017-04-22T11:38:19.909Z,280
2017-04-22T11:39:28.532Z,275
2017-04-22T11:40:37.948Z,280
2017-04-22T11:41:46.922Z,280
2017-04-22T11:42:55.567Z,310
2017-04-22T11:44:05.539Z,355
2017-04-22T11:45:15.053Z,385
2017-04-22T11:46:24.003Z,400
2017-04-22T11:47:33.232Z,340
2017-04-22T11:48:41.847Z,305
2017-04-22T11:49:50.758Z,310
2017-04-22T11:50:59.979Z,315
2017-04-22T11:52:09.222Z,315
2017-04-22T11:53:18.774Z,315
2017-04-22T11:54:28.126Z,310
2017-04-22T11:55:37.037Z,350
2017-04-22T11:56:45.783Z,380
2017-04-22T11:57:54.702Z,430
2017-04-22T11:59:03.607Z,435
2017-04-22T12:00:12.242Z,475
2017-04-22T12:01:22.099Z,485
2017-04-22T12:02:31.056Z,430
2017-04-22T12:03:39.672Z,335
2017-04-22T12:04:49.240Z,275
2017-04-22T12:05:58.142Z,235
2017-04-22T12:07:07.046Z,235
2017-04-22T12:08:16.266Z,195
2017-04-22T12:09:25.178Z,210
2017-04-22T12:10:34.413Z,215
2017-04-22T12:11:43.523Z,210
2017-04-22T12:12:52.759Z,210
2017-04-22T12:14:01.349Z,200
2017-04-22T12:15:09.951Z,210
2017-04-22T12:16:19.191Z,215
2017-04-22T12:17:28.101Z,215
2017-04-22T12:18:36.693Z,190
2017-04-22T12:19:45.620Z,240
2017-04-22T12:20:54.223Z,215
2017-04-22T12:22:03.144Z,315
2017-04-22T12:23:12.111Z,345
2017-04-22T12:24:21.375Z,300
2017-04-22T12:25:30.597Z,335
2017-04-22T12:26:39.528Z,240
2017-04-22T12:27:48.764Z,300
2017-04-22T12:28:57.987Z,360
2017-04-22T12:30:07.223Z,340
2017-04-22T12:31:16.127Z,330
2017-04-22T12:32:25.361Z,370
2017-04-22T12:33:34.115Z,370
2017-04-22T12:34:43.035Z,400
2017-04-22T12:35:51.630Z,460
2017-04-22T12:37:02.414Z,500
2017-04-22T12:38:11.556Z,475
2017-04-22T12:39:20.777Z,455
2017-04-22T12:40:29.691Z,455
2017-04-22T12:41:38.603Z,405
2017-04-22T12:42:47.827Z,295
2017-04-22T12:43:57.680Z,300
2017-04-22T12:45:06.591Z,310
2017-04-22T12:46:15.813Z,255
2017-04-22T12:47:25.360Z,255
2017-04-22T12:48:33.949Z,240
2017-04-22T12:49:43.198Z,255
2017-04-22T12:50:52.426Z,275
2017-04-22T12:52:01.013Z,315
2017-04-22T12:53:10.562Z,330
2017-04-22T12:54:19.787Z,370
2017-04-22T12:55:28.690Z,375
2017-04-22T12:56:37.273Z,395
2017-04-22T12:57:46.490Z,350
2017-04-22T12:58:55.726Z,345
2017-04-22T13:00:04.957Z,465
2017-04-22T13:01:13.909Z,420
2017-04-22T13:02:23.127Z,365
2017-04-22T13:03:32.781Z,300
2017-04-22T13:04:42.064Z,245
2017-04-22T13:05:50.995Z,240
2017-04-22T13:06:59.904Z,250
2017-04-22T13:08:08.817Z,205
2017-04-22T13:09:18.044Z,155
2017-04-22T13:10:27.584Z,140
2017-04-22T13:11:36.512Z,145
2017-04-22T13:12:45.738Z,185
2017-04-22T13:13:54.335Z,195
2017-04-22T13:15:03.563Z,170
2017-04-22T13:16:13.110Z,120
2017-04-22T13:17:22.079Z,100
2017-04-22T13:18:31.042Z,90
2017-04-22T13:19:40.909Z,85
2017-04-22T13:20:49.838Z,80
2017-04-22T13:21:58.743Z,85
2017-04-22T13:23:07.879Z,90
2017-04-22T13:24:16.529Z,115
2017-04-22T13:25:25.762Z,185
2017-04-22T13:26:35.621Z,235
2017-04-22T13:27:44.209Z,305
2017-04-22T13:28:53.121Z,350
2017-04-22T13:30:02.346Z,365
2017-04-22T13:31:11.255Z,365
2017-04-22T13:32:20.166Z,365
2017-04-22T13:33:28.757Z,375
2017-04-22T13:34:38.648Z,355
2017-04-22T13:35:47.868Z,340
2017-04-22T13:36:57.724Z,380
2017-04-22T13:38:06.950Z,420
2017-04-22T13:39:15.848Z,450
2017-04-22T13:40:24.435Z,410
2017-04-22T13:41:33.670Z,340
2017-04-22T13:42:43.014Z,295
2017-04-22T13:43:52.547Z,230
2017-04-22T13:45:01.458Z,175
2017-04-22T13:46:10.676Z,135
2017-04-22T13:47:19.590Z,135
2017-04-22T13:48:28.500Z,125
2017-04-22T13:49:37.407Z,130
2017-04-22T13:50:46.321Z,120
2017-04-22T13:51:55.346Z,110
2017-04-22T13:53:05.289Z,110
2017-04-22T13:54:13.875Z,115
2017-04-22T13:55:22.778Z,120
2017-04-22T13:56:31.702Z,125
2017-04-22T13:57:41.239Z,150
2017-04-22T13:58:50.479Z,170
2017-04-22T13:59:59.405Z,195
2017-04-22T14:01:08.337Z,230
2017-04-22T14:02:17.628Z,260
2017-04-22T14:03:26.544Z,290
2017-04-22T14:04:35.494Z,335
2017-04-22T14:05:44.091Z,355
2017-04-22T14:06:53.001Z,340
2017-04-22T14:08:02.237Z,305
2017-04-22T14:09:11.475Z,300
2017-04-22T14:10:20.075Z,325
2017-04-22T14:11:28.671Z,325
2017-04-22T14:12:38.549Z,300
2017-04-22T14:13:47.468Z,245
2017-04-22T14:14:56.858Z,200
2017-04-22T14:16:05.779Z,200
2017-04-22T14:17:14.392Z,205
2017-04-22T14:18:24.045Z,235
2017-04-22T14:19:32.746Z,265
2017-04-22T14:20:41.971Z,315
2017-04-22T14:21:51.204Z,345
2017-04-22T14:23:00.738Z,365
2017-04-22T14:24:10.287Z,355
2017-04-22T14:25:19.191Z,350
2017-04-22T14:26:28.158Z,355
2017-04-22T14:27:37.073Z,355
2017-04-22T14:28:46.013Z,350
2017-04-22T14:29:55.402Z,335
2017-04-22T14:31:04.309Z,350
2017-04-22T14:32:12.908Z,355
2017-04-22T14:33:21.813Z,330
2017-04-22T14:34:31.034Z,305
2017-04-22T14:35:39.639Z,270
2017-04-22T14:36:48.999Z,280
2017-04-22T14:37:57.981Z,315
2017-04-22T14:39:06.904Z,360
2017-04-22T14:40:16.143Z,355
2017-04-22T14:41:25.093Z,340
2017-04-22T14:42:34.325Z,340
2017-04-22T14:43:43.878Z,320
2017-04-22T14:44:52.801Z,300
2017-04-22T14:46:01.716Z,295
2017-04-22T14:47:10.634Z,300
2017-04-22T14:48:19.551Z,290
2017-04-22T14:49:28.766Z,315
2017-04-22T14:50:37.373Z,345
2017-04-22T14:51:46.290Z,340
2017-04-22T14:52:55.201Z,330
2017-04-22T14:54:04.433Z,300
2017-04-22T14:55:13.663Z,275
2017-04-22T14:56:22.588Z,265
2017-04-22T14:57:32.127Z,260
2017-04-22T14:58:41.417Z,295
2017-04-22T14:59:50.831Z,275
2017-04-22T15:01:00.503Z,275
2017-04-22T15:02:09.806Z,255
2017-04-22T15:03:19.880Z,275
2017-04-22T15:04:29.132Z,290
2017-04-22T15:05:38.199Z,275
2017-04-22T15:06:47.507Z,295
2017-04-22T15:07:56.802Z,260
2017-04-22T15:09:06.193Z,275
2017-04-22T15:10:15.530Z,305
2017-04-22T15:11:25.189Z,295
2017-04-22T15:12:34.822Z,300
2017-04-22T15:13:44.880Z,250
2017-04-22T15:14:54.584Z,205
2017-04-22T15:16:03.829Z,195
2017-04-22T15:17:13.783Z,195
2017-04-22T15:18:23.154Z,185
2017-04-22T15:19:32.214Z,200
2017-04-22T15:20:41.368Z,205
2017-04-22T15:21:51.394Z,215
2017-04-22T15:23:00.413Z,235
2017-04-22T15:24:10.065Z,205
2017-04-22T15:25:19.639Z,185
2017-04-22T15:26:29.405Z,175
2017-04-22T15:27:38.620Z,190
2017-04-22T15:28:47.485Z,220
2017-04-22T15:29:57.036Z,235
2017-04-22T15:31:06.237Z,245
2017-04-22T15:32:15.707Z,245
2017-04-22T15:33:25.328Z,245
2017-04-22T15:34:34.168Z,265
2017-04-22T15:35:43.709Z,260
2017-04-22T15:36:53.349Z,245
2017-04-22T15:38:03.077Z,250
2017-04-22T15:39:11.962Z,255
2017-04-22T15:40:22.125Z,265
2017-04-22T15:41:31.548Z,260
2017-04-22T15:42:41.605Z,240
2017-04-22T15:43:50.795Z,275
2017-04-22T15:45:00.835Z,215
2017-04-22T15:46:10.782Z,200
2017-04-22T15:47:21.391Z,210
2017-04-22T15:48:31.695Z,235
2017-04-22T15:49:42.040Z,230
2017-04-22T15:50:52.174Z,205
2017-04-22T15:52:01.542Z,180
2017-04-22T15:53:11.838Z,185
2017-04-22T15:54:21.586Z,190
2017-04-22T15:55:33.447Z,225
2017-04-22T15:56:43.644Z,215
2017-04-22T15:57:53.170Z,205
2017-04-22T15:59:02.823Z,205
2017-04-22T16:00:11.857Z,190
2017-04-22T16:01:21.267Z,180
2017-04-22T16:02:31.408Z,170
2017-04-22T16:03:41.318Z,225
2017-04-22T16:04:50.813Z,255
2017-04-22T16:06:00.601Z,255
2017-04-22T16:07:10.752Z,230
2017-04-22T16:08:20.057Z,210
2017-04-22T16:09:29.313Z,225
2017-04-22T16:10:38.320Z,230
2017-04-22T16:11:48.419Z,190
2017-04-22T16:14:22.841Z,160
2017-04-22T16:15:33.561Z,180